createdAt,value
2023-02-18T00:00:10.180Z,22.63
2023-02-18T00:03:12.211Z,20.95
2023-02-18T00:06:35.489Z,21.63
2023-02-18T00:09:39.129Z,28.02
2023-02-18T00:12:42.869Z,27.08
2023-02-18T00:15:47.266Z,24.70
2023-02-18T00:18:49.730Z,22.13
2023-02-18T00:21:51.943Z,22.75
2023-02-18T00:24:54.028Z,20.10
2023-02-18T00:27:56.078Z,20.52
2023-02-18T00:30:59.031Z,22.50
2023-02-18T00:34:01.444Z,25.77
2023-02-18T00:37:04.225Z,21.35
2023-02-18T00:40:07.106Z,21.10
2023-02-18T00:43:10.759Z,18.90
2023-02-18T00:46:13.364Z,15.75
2023-02-18T00:49:16.206Z,22.85
2023-02-18T00:52:18.234Z,24.10
2023-02-18T00:55:20.279Z,20.38
2023-02-18T00:58:22.277Z,22.17
2023-02-18T01:01:24.660Z,22.35
2023-02-18T01:04:26.763Z,22.45
2023-02-18T01:07:30.565Z,20.27
2023-02-18T01:10:33.043Z,22.35
2023-02-18T01:13:36.058Z,16.20
2023-02-18T01:16:38.194Z,21.33
2023-02-18T01:19:44.031Z,24.52
2023-02-18T01:22:47.866Z,23.10
2023-02-18T01:25:50.177Z,24.02
2023-02-18T01:28:52.229Z,24.92
2023-02-18T01:31:55.686Z,24.58
2023-02-18T01:34:57.795Z,23.38
2023-02-18T01:38:02.921Z,23.02
2023-02-18T01:41:05.470Z,23.65
2023-02-18T01:44:20.572Z,25.30
2023-02-18T01:47:23.721Z,26.45
2023-02-18T01:50:28.138Z,20.13
2023-02-18T01:54:02.060Z,23.70
2023-02-18T01:57:08.087Z,22.50
2023-02-18T02:00:17.330Z,21.77
2023-02-18T02:03:21.906Z,20.10
2023-02-18T02:06:25.544Z,24.02
2023-02-18T02:09:31.238Z,21.48
2023-02-18T02:12:36.021Z,24.85
2023-02-18T02:16:01.260Z,27.23
2023-02-18T02:19:31.224Z,21.90
2023-02-18T02:22:56.194Z,18.17
2023-02-18T02:26:53.923Z,19.45
2023-02-18T02:29:56.864Z,24.55
2023-02-18T02:33:22.117Z,23.48
2023-02-18T02:36:42.386Z,22.35
2023-02-18T02:40:15.835Z,18.38
2023-02-18T02:44:09.219Z,22.70
2023-02-18T02:47:33.067Z,26.08
2023-02-18T02:50:45.169Z,22.67
2023-02-18T02:53:47.239Z,18.15
2023-02-18T02:56:49.988Z,20.38
2023-02-18T03:00:02.367Z,26.13
2023-02-18T03:03:12.359Z,22.58
2023-02-18T03:07:02.544Z,22.75
2023-02-18T03:10:35.432Z,22.42
2023-02-18T03:14:14.346Z,22.38
2023-02-18T03:17:30.206Z,18.93
2023-02-18T03:20:40.075Z,17.50
2023-02-18T03:23:58.967Z,23.77
2023-02-18T03:27:09.943Z,22.10
2023-02-18T03:30:21.758Z,19.00
2023-02-18T03:33:30.255Z,19.38
2023-02-18T03:36:35.612Z,17.83
2023-02-18T03:39:41.982Z,19.92
2023-02-18T03:42:45.614Z,18.65
2023-02-18T03:45:47.638Z,21.42
2023-02-18T03:48:50.272Z,22.55
2023-02-18T03:51:52.421Z,20.13
2023-02-18T03:54:54.492Z,17.98
2023-02-18T03:57:56.629Z,18.05
2023-02-18T04:00:58.688Z,21.20
2023-02-18T04:04:00.811Z,15.10
2023-02-18T04:07:03.001Z,22.15
2023-02-18T04:10:06.487Z,24.25
2023-02-18T04:13:08.577Z,16.27
2023-02-18T04:16:10.648Z,25.20
2023-02-18T04:19:12.635Z,20.27
2023-02-18T04:22:15.993Z,20.45
2023-02-18T04:25:18.137Z,21.45
2023-02-18T04:28:20.134Z,12.90
2023-02-18T04:31:22.570Z,15.98
2023-02-18T04:34:24.763Z,22.48
2023-02-18T04:37:26.825Z,14.00
2023-02-18T04:40:30.830Z,21.58
2023-02-18T04:43:32.909Z,19.40
2023-02-18T04:46:35.981Z,18.90
2023-02-18T04:49:38.154Z,15.52
2023-02-18T04:52:40.327Z,17.48
2023-02-18T04:55:42.448Z,14.88
2023-02-18T04:58:44.496Z,16.48
2023-02-18T05:01:46.838Z,16.17
2023-02-18T05:04:49.005Z,14.45
2023-02-18T05:07:51.040Z,14.68
2023-02-18T05:10:53.000Z,16.05
2023-02-18T05:13:54.955Z,12.88
2023-02-18T05:16:58.412Z,17.52
2023-02-18T05:20:00.709Z,15.45
2023-02-18T05:23:02.879Z,12.57
2023-02-18T05:26:05.321Z,14.85
2023-02-18T05:29:07.570Z,15.27
2023-02-18T05:32:09.860Z,12.85
2023-02-18T05:35:12.102Z,12.10
2023-02-18T05:38:14.203Z,12.45
2023-02-18T05:41:16.461Z,13.05
2023-02-18T05:44:30.598Z,16.88
2023-02-18T05:47:32.676Z,11.90
2023-02-18T05:50:34.899Z,14.25
2023-02-18T05:53:36.975Z,9.88
2023-02-18T05:56:39.046Z,11.57
2023-02-18T05:59:41.417Z,12.80
2023-02-18T06:02:43.660Z,12.32
2023-02-18T06:05:45.832Z,18.20
2023-02-18T06:08:47.888Z,14.20
2023-02-18T06:11:50.086Z,14.25
2023-02-18T06:14:52.114Z,13.63
2023-02-18T06:17:54.262Z,13.88
2023-02-18T06:20:56.323Z,14.73
2023-02-18T06:23:58.535Z,15.90
2023-02-18T06:27:00.746Z,12.05
2023-02-18T06:30:03.050Z,14.90
2023-02-18T06:33:05.472Z,13.93
2023-02-18T06:36:11.871Z,16.95
2023-02-18T06:39:14.055Z,10.23
2023-02-18T06:42:16.160Z,17.90
2023-02-18T06:45:18.402Z,11.95
2023-02-18T06:48:20.521Z,17.50
2023-02-18T06:51:22.536Z,16.13
2023-02-18T06:54:25.527Z,25.95
2023-02-18T06:57:27.529Z,12.45
2023-02-18T07:00:31.039Z,16.65
2023-02-18T07:03:33.531Z,18.92
2023-02-18T07:06:35.776Z,21.50
2023-02-18T07:09:38.099Z,19.40
2023-02-18T07:12:40.106Z,16.73
2023-02-18T07:15:42.125Z,20.83
2023-02-18T07:18:46.534Z,29.08
2023-02-18T07:21:48.565Z,20.52
2023-02-18T07:24:54.028Z,25.85
2023-02-18T07:27:56.126Z,21.65
2023-02-18T07:30:58.239Z,28.45
2023-02-18T07:34:00.666Z,21.27
2023-02-18T07:37:02.942Z,26.35
2023-02-18T07:40:07.878Z,21.80
2023-02-18T07:43:09.933Z,29.35
2023-02-18T07:46:15.287Z,29.30
2023-02-18T07:49:17.511Z,26.40
2023-02-18T07:52:19.540Z,24.10
2023-02-18T07:55:21.933Z,28.52
2023-02-18T07:58:28.592Z,11.55
2023-02-18T08:01:31.156Z,9.23
2023-02-18T08:04:34.033Z,5.57
2023-02-18T08:07:36.132Z,5.28
2023-02-18T08:10:38.169Z,7.47
2023-02-18T08:13:40.207Z,6.22
2023-02-18T08:16:42.319Z,6.97
2023-02-18T08:19:44.340Z,9.57
2023-02-18T08:22:46.389Z,9.02
2023-02-18T08:25:51.806Z,5.13
2023-02-18T08:28:54.181Z,4.55
2023-02-18T08:31:58.321Z,4.55
2023-02-18T08:35:01.202Z,4.68
2023-02-18T08:38:03.174Z,4.50
2023-02-18T08:41:09.821Z,2.95
2023-02-18T08:44:12.033Z,4.63
2023-02-18T08:48:16.690Z,4.55
2023-02-18T08:50:36.751Z,6.63
2023-02-18T08:53:39.138Z,3.72
2023-02-18T08:56:41.848Z,6.43
2023-02-18T08:59:44.036Z,7.90
2023-02-18T09:02:47.617Z,8.98
2023-02-18T09:05:49.807Z,4.75
2023-02-18T09:08:51.883Z,3.95
2023-02-18T09:11:53.951Z,8.40
2023-02-18T09:14:56.042Z,4.75
2023-02-18T09:17:59.906Z,7.97
2023-02-18T09:21:02.404Z,4.80
2023-02-18T09:24:04.638Z,2.22
2023-02-18T09:27:07.587Z,2.50
2023-02-18T09:30:10.836Z,4.45
2023-02-18T09:33:13.183Z,3.17
2023-02-18T09:36:15.603Z,1.38
2023-02-18T09:39:18.924Z,5.68
2023-02-18T09:42:28.292Z,5.63
2023-02-18T09:45:30.557Z,2.67
2023-02-18T09:48:36.315Z,2.03
2023-02-18T09:51:38.380Z,4.85
2023-02-18T09:54:41.078Z,1.55
2023-02-18T09:57:50.304Z,1.50
2023-02-18T10:01:26.036Z,2.00
2023-02-18T10:04:40.996Z,2.03
2023-02-18T10:07:46.038Z,2.42
2023-02-18T10:10:48.292Z,0.90
2023-02-18T10:13:50.939Z,3.70
2023-02-18T10:16:54.158Z,1.92
2023-02-18T10:19:58.509Z,4.47
2023-02-18T10:23:05.465Z,2.47
2023-02-18T10:26:15.078Z,3.33
2023-02-18T10:29:22.137Z,4.10
2023-02-18T10:32:47.061Z,2.20
2023-02-18T10:36:04.430Z,4.60
2023-02-18T10:39:21.610Z,3.97
2023-02-18T10:43:04.134Z,6.20
2023-02-18T10:46:24.227Z,2.58
2023-02-18T10:49:52.990Z,3.72
2023-02-18T10:52:59.610Z,4.55
2023-02-18T10:56:02.243Z,2.67
2023-02-18T10:59:21.440Z,2.35
2023-02-18T11:05:29.828Z,3.42
2023-02-18T11:08:42.795Z,5.03
2023-02-18T11:11:50.625Z,2.55
2023-02-18T11:15:24.710Z,6.50
2023-02-18T11:18:31.918Z,5.03
2023-02-18T11:21:38.570Z,3.70
2023-02-18T11:24:40.748Z,4.20
2023-02-18T11:27:46.391Z,1.95
2023-02-18T11:30:54.289Z,7.85
2023-02-18T11:34:01.189Z,3.58
2023-02-18T11:37:32.611Z,5.25
2023-02-18T11:40:36.737Z,5.82
2023-02-18T11:43:43.092Z,9.68
2023-02-18T11:47:05.528Z,4.18
2023-02-18T11:50:10.429Z,7.20
2023-02-18T11:53:38.513Z,2.45
2023-02-18T11:56:40.583Z,2.78
2023-02-18T11:59:43.066Z,5.80
2023-02-18T12:02:45.356Z,7.18
2023-02-18T12:05:48.239Z,3.97
2023-02-18T12:08:56.202Z,3.20
2023-02-18T12:12:07.178Z,4.60
2023-02-18T12:15:14.176Z,6.90
2023-02-18T12:18:19.954Z,4.45
2023-02-18T12:21:58.495Z,2.92
2023-02-18T12:25:06.099Z,7.22
2023-02-18T12:28:25.588Z,2.47
2023-02-18T12:32:05.703Z,12.35
2023-02-18T12:38:39.630Z,3.22
2023-02-18T12:42:09.972Z,5.57
2023-02-18T12:45:27.445Z,2.95
2023-02-18T12:48:29.503Z,5.57
2023-02-18T12:51:46.767Z,4.60
2023-02-18T12:55:09.336Z,5.80
2023-02-18T12:58:35.676Z,11.02
2023-02-18T13:02:23.294Z,10.13
2023-02-18T13:05:38.357Z,2.33
2023-02-18T13:08:55.783Z,5.28
2023-02-18T13:12:06.727Z,3.38
2023-02-18T13:15:17.563Z,1.52
2023-02-18T13:18:30.623Z,3.33
2023-02-18T13:21:34.028Z,2.17
2023-02-18T13:24:38.633Z,3.72
2023-02-18T13:28:15.852Z,6.47
2023-02-18T13:31:49.680Z,6.57
2023-02-18T13:35:04.929Z,5.07
2023-02-18T13:38:27.343Z,0.70
2023-02-18T13:41:29.669Z,2.00
2023-02-18T13:45:16.746Z,2.63
2023-02-18T13:48:27.037Z,5.00
2023-02-18T13:51:30.908Z,5.15
2023-02-18T13:54:37.392Z,2.25
2023-02-18T13:57:39.590Z,3.65
2023-02-18T14:00:50.054Z,3.47
2023-02-18T14:03:57.032Z,2.47
2023-02-18T14:07:26.912Z,6.70
2023-02-18T14:10:34.919Z,8.80
2023-02-18T14:13:41.055Z,6.93
2023-02-18T14:17:22.702Z,10.50
2023-02-18T14:20:29.146Z,3.92
2023-02-18T14:23:37.493Z,6.68
2023-02-18T14:26:46.026Z,17.65
2023-02-18T14:29:52.285Z,7.32
2023-02-18T14:32:59.631Z,5.38
2023-02-18T14:36:29.944Z,8.35
2023-02-18T14:39:49.777Z,6.40
2023-02-18T14:43:23.101Z,6.13
2023-02-18T14:47:01.989Z,7.88
2023-02-18T14:50:10.950Z,7.05
2023-02-18T14:53:18.753Z,10.45
2023-02-18T14:56:22.233Z,12.25
2023-02-18T14:59:29.176Z,7.78
2023-02-18T15:02:38.869Z,8.80
2023-02-18T15:05:41.114Z,8.60
2023-02-18T15:08:43.143Z,9.65
2023-02-18T15:11:53.080Z,19.60
2023-02-18T15:14:59.973Z,14.63
2023-02-18T15:18:04.984Z,10.07
2023-02-18T15:21:28.317Z,12.10
2023-02-18T15:24:39.389Z,5.22
2023-02-18T15:27:47.129Z,14.25
2023-02-18T15:30:49.526Z,13.17
2023-02-18T15:33:52.836Z,10.85
2023-02-18T15:36:55.946Z,14.38
2023-02-18T15:39:58.606Z,15.48
2023-02-18T15:43:04.186Z,16.17
2023-02-18T15:46:14.369Z,15.32
2023-02-18T15:49:23.316Z,14.82
2023-02-18T15:52:31.906Z,13.30
2023-02-18T15:55:38.737Z,15.38
2023-02-18T15:58:40.858Z,16.88
2023-02-18T16:01:42.889Z,26.10
2023-02-18T16:04:51.377Z,31.60
2023-02-18T16:11:07.679Z,31.65
2023-02-18T16:14:31.811Z,23.40
2023-02-18T16:17:33.993Z,18.80
2023-02-18T16:20:38.101Z,20.50
2023-02-18T16:23:45.665Z,22.23
2023-02-18T16:26:47.707Z,20.83
2023-02-18T16:29:51.999Z,12.07
2023-02-18T16:32:54.969Z,21.98
2023-02-18T16:35:57.912Z,22.77
2023-02-18T16:39:02.212Z,23.13
2023-02-18T16:42:10.485Z,20.50
2023-02-18T16:45:13.386Z,26.58
2023-02-18T16:48:24.564Z,29.48
2023-02-18T16:51:31.847Z,20.60
2023-02-18T16:54:36.470Z,26.80
2023-02-18T16:57:39.912Z,28.92
2023-02-18T17:00:43.637Z,26.17
2023-02-18T17:03:47.871Z,23.75
2023-02-18T17:06:51.146Z,26.05
2023-02-18T17:09:59.788Z,23.58
2023-02-18T17:13:01.771Z,35.85
2023-02-18T17:16:03.896Z,36.03
2023-02-18T17:19:06.298Z,28.98
2023-02-18T17:22:10.258Z,43.28
2023-02-18T17:25:20.606Z,47.45
2023-02-18T17:28:23.344Z,66.35
2023-02-18T17:31:29.046Z,53.03
2023-02-18T17:34:32.795Z,57.25
2023-02-18T17:37:34.809Z,51.95
2023-02-18T17:40:36.858Z,48.00
2023-02-18T17:43:39.329Z,56.35
2023-02-18T17:46:44.876Z,66.50
2023-02-18T17:49:47.139Z,49.13
2023-02-18T17:52:49.323Z,36.92
2023-02-18T17:55:51.896Z,40.92
2023-02-18T17:58:53.889Z,40.15
2023-02-18T18:01:56.027Z,41.22
2023-02-18T18:04:58.132Z,58.67
2023-02-18T18:08:01.772Z,64.65
2023-02-18T18:11:06.048Z,54.70
2023-02-18T18:14:11.784Z,59.22
2023-02-18T18:17:14.610Z,48.08
2023-02-18T18:20:17.774Z,35.67
2023-02-18T18:23:21.830Z,41.10
2023-02-18T18:26:30.758Z,36.85
2023-02-18T18:29:33.678Z,34.92
2023-02-18T18:32:36.887Z,40.47
2023-02-18T18:35:38.939Z,29.92
2023-02-18T18:42:12.542Z,43.08
2023-02-18T18:45:22.718Z,41.58
2023-02-18T18:48:27.143Z,44.05
2023-02-18T18:51:32.720Z,52.60
2023-02-18T18:54:37.199Z,43.13
2023-02-18T18:57:39.248Z,46.95
2023-02-18T19:00:43.930Z,47.58
2023-02-18T19:03:47.406Z,42.50
2023-02-18T19:06:51.933Z,39.63
2023-02-18T19:09:53.920Z,38.30
2023-02-18T19:13:05.118Z,43.42
2023-02-18T19:16:17.269Z,45.05
2023-02-18T19:19:21.133Z,34.70
2023-02-18T19:22:23.607Z,42.30
2023-02-18T19:25:27.512Z,40.38
2023-02-18T19:28:29.669Z,50.40
2023-02-18T19:31:31.780Z,41.92
2023-02-18T19:34:36.993Z,48.40
2023-02-18T19:37:39.370Z,46.28
2023-02-18T19:40:42.336Z,57.78
2023-02-18T19:43:46.995Z,57.15
2023-02-18T19:46:49.126Z,59.95
2023-02-18T19:49:53.152Z,43.60
2023-02-18T19:52:56.302Z,47.78
2023-02-18T19:56:07.354Z,57.67
2023-02-18T19:59:09.376Z,60.78
2023-02-18T20:02:23.264Z,57.63
2023-02-18T20:05:25.624Z,69.60
2023-02-18T20:08:27.778Z,67.07
2023-02-18T20:11:32.739Z,45.97
2023-02-18T20:14:37.415Z,49.88
2023-02-18T20:17:39.651Z,50.58
2023-02-18T20:20:49.120Z,53.40
2023-02-18T20:23:54.890Z,43.53
2023-02-18T20:26:58.056Z,47.65
2023-02-18T20:30:01.080Z,61.85
2023-02-18T20:33:04.624Z,53.20
2023-02-18T20:36:08.707Z,49.80
2023-02-18T20:39:16.269Z,45.65
2023-02-18T20:42:18.848Z,53.00
2023-02-18T20:45:26.178Z,56.65
2023-02-18T20:48:28.280Z,47.22
2023-02-18T20:51:30.358Z,43.22
2023-02-18T20:54:32.582Z,40.20
2023-02-18T20:57:35.707Z,42.05
2023-02-18T21:00:37.867Z,47.92
2023-02-18T21:03:41.003Z,55.35
2023-02-18T21:06:45.641Z,48.38
2023-02-18T21:09:55.427Z,59.38
2023-02-18T21:12:57.463Z,55.15
2023-02-18T21:16:02.832Z,45.72
2023-02-18T21:19:07.465Z,41.97
2023-02-18T21:22:09.452Z,48.40
2023-02-18T21:25:14.114Z,49.05
2023-02-18T21:28:16.139Z,39.17
2023-02-18T21:31:22.631Z,43.22
2023-02-18T21:34:26.114Z,41.08
2023-02-18T21:37:28.426Z,38.35
2023-02-18T21:40:31.307Z,45.90
2023-02-18T21:43:33.505Z,36.95
2023-02-18T21:46:37.399Z,44.05
2023-02-18T21:49:39.563Z,45.47
2023-02-18T21:52:43.035Z,45.78
2023-02-18T21:55:55.317Z,56.80
2023-02-18T21:59:04.467Z,33.50
2023-02-18T22:02:12.803Z,33.72
2023-02-18T22:08:18.760Z,33.78
2023-02-18T22:11:20.837Z,32.53
2023-02-18T22:14:23.130Z,29.63
2023-02-18T22:17:25.263Z,29.17
2023-02-18T22:20:27.442Z,25.70
2023-02-18T22:23:31.463Z,21.83
2023-02-18T22:26:34.220Z,30.38
2023-02-18T22:29:36.177Z,28.90
2023-02-18T22:32:39.254Z,23.70
2023-02-18T22:35:41.295Z,21.50
2023-02-18T22:38:43.583Z,16.85
2023-02-18T22:41:45.725Z,12.68
2023-02-18T22:44:47.779Z,12.75
2023-02-18T22:47:49.789Z,16.98
2023-02-18T22:50:51.872Z,12.05
2023-02-18T22:53:56.356Z,14.10
2023-02-18T22:56:58.416Z,14.35
2023-02-18T23:00:00.396Z,11.30
2023-02-18T23:03:02.496Z,11.80
2023-02-18T23:06:06.124Z,11.98
2023-02-18T23:09:11.569Z,16.75
2023-02-18T23:12:13.629Z,13.00
2023-02-18T23:15:16.962Z,18.80
2023-02-18T23:18:18.993Z,13.38
2023-02-18T23:21:21.348Z,14.43
2023-02-18T23:24:23.527Z,14.75
2023-02-18T23:27:26.120Z,13.57
2023-02-18T23:30:28.228Z,16.13
2023-02-18T23:33:30.297Z,12.93
2023-02-18T23:36:34.656Z,15.85
2023-02-18T23:39:37.577Z,23.23
2023-02-18T23:42:39.633Z,39.80
2023-02-18T23:45:44.013Z,31.80
2023-02-18T23:48:46.225Z,28.63
2023-02-18T23:51:49.505Z,30.20
2023-02-18T23:54:51.520Z,23.00
2023-02-18T23:57:53.487Z,24.25
